Time;durP1;ratioP1;P1;durP2;ratioP2;P2;SDS_P1;SDS_P2;PMS_P1;PMS_P2;Temp;Humidity;BMP_temperature;BMP_pressure;BME280_temperature;BME280_humidity;BME280_pressure;Samples;Min_cycle;Max_cycle;Signal;HPM_P1;HPM_P2
2021/12/16 00:09:57;;;;;;;19.63;7.97;;;;;;;;;;4809409;29;20062;-78
2021/12/16 00:34:01;;;;;;;17.65;6.43;;;;;;;;;;4825244;29;20226;-82
2021/12/16 00:36:29;;;;;;;15.45;6.90;;;;;;;;;;4792389;29;20054;-79
2021/12/16 00:38:55;;;;;;;22.92;6.72;;;;;;;;;;4790821;29;20089;-79
2021/12/16 00:41:21;;;;;;;18.42;6.60;;;;;;;;;;4806788;29;20409;-81
2021/12/16 00:43:58;;;;;;;24.00;6.65;;;;;;;;;;4809181;29;20077;-79
2021/12/16 00:49:17;;;;;;;22.30;6.88;;;;;;;;;;4809320;29;20086;-79
2021/12/16 00:54:29;;;;;;;15.30;6.07;;;;;;;;;;4802153;29;20118;-81
2021/12/16 00:57:00;;;;;;;18.90;5.82;;;;;;;;;;4793363;29;20145;-80
2021/12/16 00:59:32;;;;;;;16.77;5.80;;;;;;;;;;4800254;29;20086;-81
2021/12/16 01:35:19;;;;;;;15.00;4.68;;;;;;;;;;4808888;29;20133;-79
2021/12/16 01:38:21;;;;;;;16.05;4.85;;;;;;;;;;4789325;29;20039;-79
2021/12/16 01:41:12;;;;;;;15.18;4.95;;;;;;;;;;4790569;29;20498;-82
2021/12/16 01:46:35;;;;;;;15.30;5.60;;;;;;;;;;4808325;29;20081;-79
2021/12/16 01:54:55;;;;;;;13.18;4.57;;;;;;;;;;4808644;29;20058;-79
2021/12/16 01:57:34;;;;;;;16.38;4.88;;;;;;;;;;4808438;29;20050;-80
2021/12/16 02:00:07;;;;;;;18.58;5.53;;;;;;;;;;4790428;29;20475;-81
2021/12/16 02:05:55;;;;;;;14.00;4.85;;;;;;;;;;4808748;29;20058;-80
2021/12/16 02:10:37;;;;;;;15.07;5.07;;;;;;;;;;4811650;29;20111;-79
2021/12/16 02:35:12;;;;;;;15.38;5.60;;;;;;;;;;4810858;29;20082;-80
2021/12/16 02:37:46;;;;;;;10.98;5.20;;;;;;;;;;4800751;29;20418;-80
2021/12/16 02:40:12;;;;;;;18.65;5.70;;;;;;;;;;4778078;29;20138;-80
2021/12/16 02:42:52;;;;;;;15.65;5.78;;;;;;;;;;4804052;29;20403;-80
2021/12/16 02:51:04;;;;;;;16.98;5.30;;;;;;;;;;4788524;29;20099;-79
2021/12/16 02:53:31;;;;;;;16.90;5.82;;;;;;;;;;4792806;29;20058;-80
2021/12/16 02:55:57;;;;;;;15.50;5.40;;;;;;;;;;4795928;29;20222;-78
2021/12/16 02:58:23;;;;;;;18.70;4.90;;;;;;;;;;4794800;29;20391;-78
2021/12/16 03:00:54;;;;;;;17.88;4.80;;;;;;;;;;4810061;29;20471;-80
2021/12/16 03:03:20;;;;;;;17.30;5.32;;;;;;;;;;4792705;29;20043;-79
2021/12/16 03:05:46;;;;;;;14.13;4.72;;;;;;;;;;4792722;29;20050;-79
2021/12/16 03:08:12;;;;;;;18.77;5.78;;;;;;;;;;4792550;29;20444;-80
2021/12/16 03:11:03;;;;;;;18.77;5.68;;;;;;;;;;4807430;29;20059;-79
2021/12/16 03:13:42;;;;;;;17.17;5.53;;;;;;;;;;4809529;29;20094;-79
2021/12/16 03:16:18;;;;;;;18.10;5.28;;;;;;;;;;4795902;29;20137;-81
2021/12/16 03:21:18;;;;;;;13.52;5.45;;;;;;;;;;4810374;29;20050;-78
2021/12/16 03:23:58;;;;;;;13.20;5.82;;;;;;;;;;4810653;29;20058;-80
2021/12/16 03:36:29;;;;;;;17.65;5.90;;;;;;;;;;4809354;29;20115;-80
2021/12/16 03:39:01;;;;;;;16.60;5.70;;;;;;;;;;4770342;29;20039;-79
2021/12/16 03:41:28;;;;;;;17.58;6.20;;;;;;;;;;4807334;29;20115;-79
2021/12/16 03:43:56;;;;;;;16.27;5.88;;;;;;;;;;4807421;29;20091;-80
2021/12/16 03:46:25;;;;;;;22.05;6.80;;;;;;;;;;4807214;29;20076;-78
2021/12/16 03:48:58;;;;;;;18.10;6.95;;;;;;;;;;4792252;29;20050;-79
2021/12/16 03:51:26;;;;;;;19.67;6.53;;;;;;;;;;4809315;29;20049;-79
2021/12/16 03:53:55;;;;;;;15.02;6.25;;;;;;;;;;4795060;29;20069;-80
2021/12/16 03:56:21;;;;;;;24.20;6.40;;;;;;;;;;4791606;29;20073;-79
2021/12/16 03:58:47;;;;;;;20.92;6.63;;;;;;;;;;4791732;29;20046;-78
2021/12/16 04:01:18;;;;;;;18.65;7.20;;;;;;;;;;4794824;29;20034;-79
2021/12/16 04:03:44;;;;;;;15.43;6.00;;;;;;;;;;4809726;29;20046;-78
2021/12/16 04:06:11;;;;;;;18.30;6.00;;;;;;;;;;4809388;29;20359;-80
2021/12/16 04:08:37;;;;;;;18.58;6.65;;;;;;;;;;4822247;29;20472;-79
2021/12/16 04:11:07;;;;;;;20.50;6.25;;;;;;;;;;4809113;29;20090;-79
2021/12/16 04:13:36;;;;;;;17.25;5.78;;;;;;;;;;4809614;29;20195;-78
2021/12/16 04:16:02;;;;;;;16.13;5.88;;;;;;;;;;4808619;29;20053;-79
2021/12/16 04:18:28;;;;;;;21.70;6.70;;;;;;;;;;4794604;29;20042;-80
2021/12/16 04:20:54;;;;;;;23.10;6.10;;;;;;;;;;4794663;29;20422;-81
2021/12/16 04:23:21;;;;;;;19.25;6.78;;;;;;;;;;4808434;29;20053;-80
2021/12/16 04:25:48;;;;;;;22.10;6.82;;;;;;;;;;4793435;29;20111;-78
2021/12/16 04:28:18;;;;;;;17.63;6.50;;;;;;;;;;4809492;29;20061;-78
2021/12/16 04:30:44;;;;;;;19.73;6.07;;;;;;;;;;4801076;29;20130;-79
2021/12/16 04:33:10;;;;;;;15.10;5.85;;;;;;;;;;4794086;29;20356;-78
2021/12/16 04:35:36;;;;;;;12.18;6.72;;;;;;;;;;4794367;29;20156;-79
2021/12/16 04:38:04;;;;;;;21.17;5.78;;;;;;;;;;4804408;29;20479;-80
2021/12/16 04:40:31;;;;;;;16.63;6.20;;;;;;;;;;4809781;29;20050;-79
2021/12/16 04:43:02;;;;;;;16.88;6.25;;;;;;;;;;4809485;29;20051;-79
2021/12/16 04:45:28;;;;;;;13.98;5.80;;;;;;;;;;4794705;29;20086;-80
2021/12/16 04:47:55;;;;;;;19.05;5.65;;;;;;;;;;4809374;29;20046;-78
2021/12/16 04:50:21;;;;;;;17.48;6.30;;;;;;;;;;4794321;29;20077;-79
2021/12/16 04:52:47;;;;;;;22.45;6.80;;;;;;;;;;4808862;29;20414;-80
2021/12/16 04:55:15;;;;;;;16.25;6.00;;;;;;;;;;4793947;29;20380;-79
2021/12/16 04:57:41;;;;;;;17.55;6.78;;;;;;;;;;4808749;29;20053;-78
2021/12/16 05:00:09;;;;;;;15.02;6.10;;;;;;;;;;4794050;29;20050;-79
2021/12/16 05:02:36;;;;;;;20.33;6.15;;;;;;;;;;4791184;29;20129;-79
2021/12/16 05:05:03;;;;;;;16.65;5.78;;;;;;;;;;4806089;29;20139;-83
2021/12/16 05:07:29;;;;;;;16.33;6.28;;;;;;;;;;4793603;29;20460;-80
2021/12/16 05:10:06;;;;;;;18.48;6.80;;;;;;;;;;4793362;29;20062;-78
2021/12/16 05:12:36;;;;;;;19.35;7.32;;;;;;;;;;4808717;29;20050;-78
2021/12/16 05:15:04;;;;;;;22.95;7.05;;;;;;;;;;4794359;29;20084;-77
2021/12/16 05:17:36;;;;;;;20.50;6.90;;;;;;;;;;4808831;29;20171;-82
2021/12/16 05:20:08;;;;;;;23.52;7.35;;;;;;;;;;4808835;29;20058;-79
2021/12/16 05:25:48;;;;;;;13.07;5.95;;;;;;;;;;4807687;29;20147;-81
2021/12/16 05:28:15;;;;;;;21.73;6.70;;;;;;;;;;4808783;29;20091;-79
2021/12/16 05:30:42;;;;;;;19.77;7.70;;;;;;;;;;4808451;29;20466;-82
2021/12/16 05:33:08;;;;;;;17.20;6.70;;;;;;;;;;4793903;29;20425;-79
2021/12/16 05:35:35;;;;;;;14.85;6.50;;;;;;;;;;4809183;29;20115;-78
2021/12/16 05:38:01;;;;;;;17.80;7.43;;;;;;;;;;4801614;29;20058;-78
2021/12/16 05:40:28;;;;;;;21.15;7.68;;;;;;;;;;4826894;29;20054;-80
2021/12/16 05:42:56;;;;;;;18.80;7.13;;;;;;;;;;4812072;29;20058;-78
2021/12/16 05:45:23;;;;;;;21.90;7.45;;;;;;;;;;4828635;29;20050;-80
2021/12/16 05:47:50;;;;;;;17.40;6.82;;;;;;;;;;4811873;29;20387;-80
2021/12/16 05:50:17;;;;;;;20.27;7.97;;;;;;;;;;4797620;29;20051;-80
2021/12/16 05:52:44;;;;;;;21.15;8.85;;;;;;;;;;4793401;29;20372;-78
2021/12/16 05:55:11;;;;;;;18.38;7.32;;;;;;;;;;4793934;29;20100;-81
2021/12/16 05:57:38;;;;;;;18.83;7.57;;;;;;;;;;4793892;29;20468;-78
2021/12/16 06:00:06;;;;;;;18.08;7.32;;;;;;;;;;4793799;29;20043;-79
2021/12/16 06:02:32;;;;;;;18.60;7.53;;;;;;;;;;4806312;29;20053;-79
2021/12/16 06:04:58;;;;;;;22.48;7.70;;;;;;;;;;4797033;29;20374;-79
2021/12/16 06:07:24;;;;;;;22.58;8.02;;;;;;;;;;4808526;29;20049;-81
2021/12/16 06:09:50;;;;;;;24.75;8.52;;;;;;;;;;4793047;29;20066;-80
2021/12/16 06:12:17;;;;;;;21.55;7.68;;;;;;;;;;4793528;29;20071;-79
2021/12/16 06:14:56;;;;;;;27.25;7.85;;;;;;;;;;4794043;29;20150;-78
2021/12/16 06:28:24;;;;;;;20.58;8.48;;;;;;;;;;4826895;29;20046;-78
2021/12/16 06:30:50;;;;;;;22.55;7.75;;;;;;;;;;4811456;29;20157;-79
2021/12/16 06:33:25;;;;;;;25.80;8.88;;;;;;;;;;4810963;29;20046;-80
2021/12/16 06:35:53;;;;;;;21.05;9.00;;;;;;;;;;4793210;29;20050;-79
2021/12/16 06:38:20;;;;;;;24.35;9.50;;;;;;;;;;4807570;29;20084;-78
2021/12/16 06:40:47;;;;;;;24.10;9.25;;;;;;;;;;4796204;29;20042;-80
2021/12/16 06:43:15;;;;;;;17.70;7.75;;;;;;;;;;4795919;29;20046;-80
2021/12/16 06:45:45;;;;;;;23.63;8.82;;;;;;;;;;4807208;29;20058;-79
2021/12/16 06:48:16;;;;;;;22.30;9.20;;;;;;;;;;4810359;29;20089;-80
2021/12/16 06:50:54;;;;;;;20.27;9.50;;;;;;;;;;4811261;29;20055;-78
2021/12/16 06:53:27;;;;;;;26.52;10.25;;;;;;;;;;4811363;29;20108;-80
2021/12/16 06:56:14;;;;;;;20.85;8.80;;;;;;;;;;4796236;29;20409;-79
2021/12/16 06:58:50;;;;;;;18.85;9.20;;;;;;;;;;4810592;29;20105;-79
2021/12/16 07:01:48;;;;;;;23.92;10.00;;;;;;;;;;4810378;29;20074;-80
2021/12/16 07:04:06;;;;;;;26.02;9.77;;;;;;;;;;4810320;29;20077;-78
2021/12/16 07:06:33;;;;;;;27.38;9.65;;;;;;;;;;4809881;29;20042;-80
2021/12/16 07:09:04;;;;;;;19.88;9.50;;;;;;;;;;4811358;29;20054;-85
2021/12/16 07:11:30;;;;;;;19.63;10.02;;;;;;;;;;4810740;29;20058;-79
2021/12/16 07:13:58;;;;;;;25.13;10.88;;;;;;;;;;4810590;29;20090;-79
2021/12/16 07:16:25;;;;;;;21.42;10.35;;;;;;;;;;4809536;29;20073;-79
2021/12/16 07:18:51;;;;;;;26.95;11.02;;;;;;;;;;4809998;29;20064;-79
2021/12/16 07:21:18;;;;;;;26.75;10.65;;;;;;;;;;4810327;29;20050;-78
2021/12/16 07:23:44;;;;;;;24.73;11.45;;;;;;;;;;4810052;29;20051;-79
2021/12/16 07:26:10;;;;;;;32.70;12.25;;;;;;;;;;4795312;29;20118;-80
2021/12/16 07:28:36;;;;;;;34.08;12.68;;;;;;;;;;4800300;29;20479;-79
2021/12/16 07:31:02;;;;;;;28.73;12.23;;;;;;;;;;4810078;29;20054;-80
2021/12/16 07:33:28;;;;;;;23.17;11.60;;;;;;;;;;4825841;29;20054;-79
2021/12/16 07:35:55;;;;;;;27.42;11.88;;;;;;;;;;4794863;29;20098;-78
2021/12/16 07:38:21;;;;;;;25.02;11.05;;;;;;;;;;4807148;29;20216;-78
2021/12/16 07:40:50;;;;;;;30.92;12.02;;;;;;;;;;4792495;29;20379;-78
2021/12/16 07:46:00;;;;;;;24.60;11.48;;;;;;;;;;4807751;29;20086;-79
2021/12/16 07:48:27;;;;;;;21.27;10.48;;;;;;;;;;4809424;29;20376;-80
2021/12/16 07:50:55;;;;;;;21.95;10.70;;;;;;;;;;4792221;29;20043;-79
2021/12/16 07:53:21;;;;;;;27.05;11.48;;;;;;;;;;4809294;29;20471;-80
2021/12/16 07:55:47;;;;;;;23.08;11.65;;;;;;;;;;4794806;29;20050;-81
2021/12/16 07:58:19;;;;;;;20.23;10.43;;;;;;;;;;4793723;29;20050;-79
2021/12/16 08:00:46;;;;;;;22.95;10.90;;;;;;;;;;4791621;29;20111;-81
2021/12/16 08:03:15;;;;;;;27.33;12.68;;;;;;;;;;4808561;29;20562;-82
2021/12/16 08:05:46;;;;;;;26.60;12.23;;;;;;;;;;4794940;29;20451;-82
2021/12/16 08:08:12;;;;;;;28.02;11.60;;;;;;;;;;4794485;29;20093;-81
2021/12/16 08:10:46;;;;;;;21.40;10.55;;;;;;;;;;4794581;29;20133;-85
2021/12/16 08:13:13;;;;;;;21.80;11.95;;;;;;;;;;4801629;29;20066;-80
2021/12/16 08:15:43;;;;;;;20.55;11.90;;;;;;;;;;4809580;29;20513;-81
2021/12/16 08:18:09;;;;;;;23.15;11.38;;;;;;;;;;4793857;29;20065;-82
2021/12/16 08:20:35;;;;;;;38.03;13.35;;;;;;;;;;4810235;29;20043;-80
2021/12/16 08:23:02;;;;;;;31.65;13.52;;;;;;;;;;4791189;29;20062;-81
2021/12/16 08:25:29;;;;;;;49.20;17.00;;;;;;;;;;4795556;29;20073;-80
2021/12/16 08:27:56;;;;;;;55.08;14.90;;;;;;;;;;4790447;29;20061;-81
2021/12/16 08:30:24;;;;;;;51.28;12.90;;;;;;;;;;4794104;29;20061;-81
2021/12/16 08:32:50;;;;;;;39.25;12.30;;;;;;;;;;4809128;29;20078;-78
2021/12/16 08:45:32;;;;;;;40.47;11.43;;;;;;;;;;4787085;30;20043;-85
2021/12/16 08:47:59;;;;;;;45.33;13.02;;;;;;;;;;4791913;29;20058;-82
2021/12/16 08:50:31;;;;;;;43.03;10.85;;;;;;;;;;4793365;29;20046;-82
2021/12/16 08:53:00;;;;;;;57.70;13.18;;;;;;;;;;4809096;29;20114;-86
2021/12/16 08:55:56;;;;;;;58.22;12.27;;;;;;;;;;4789335;29;20130;-81
2021/12/16 08:58:54;;;;;;;56.83;11.85;;;;;;;;;;4803065;29;20070;-81
2021/12/16 09:07:46;;;;;;;47.10;10.90;;;;;;;;;;4763894;30;20048;-79
2021/12/16 09:10:14;;;;;;;37.30;9.80;;;;;;;;;;4821276;29;20158;-81
2021/12/16 09:12:53;;;;;;;37.58;9.95;;;;;;;;;;4793510;29;20565;-80
2021/12/16 09:15:21;;;;;;;53.25;11.30;;;;;;;;;;4809088;29;20118;-84
2021/12/16 09:17:47;;;;;;;35.47;9.88;;;;;;;;;;4792103;29;20046;-79
2021/12/16 09:20:14;;;;;;;33.53;9.68;;;;;;;;;;4805086;29;20065;-80
2021/12/16 09:22:40;;;;;;;40.03;9.30;;;;;;;;;;4792282;29;20042;-80
2021/12/16 09:25:07;;;;;;;43.97;10.18;;;;;;;;;;4793481;29;20046;-81
2021/12/16 09:27:33;;;;;;;55.10;11.10;;;;;;;;;;4793524;29;20475;-80
2021/12/16 09:30:00;;;;;;;39.35;10.02;;;;;;;;;;4793723;29;20057;-80
2021/12/16 09:32:29;;;;;;;41.60;10.50;;;;;;;;;;4793680;29;20050;-79
2021/12/16 09:34:55;;;;;;;51.80;11.27;;;;;;;;;;4793486;29;20150;-79
2021/12/16 09:37:22;;;;;;;45.38;10.70;;;;;;;;;;4793821;29;20081;-79
2021/12/16 09:39:48;;;;;;;55.70;11.60;;;;;;;;;;4808515;29;20055;-81
2021/12/16 09:42:14;;;;;;;33.40;10.27;;;;;;;;;;4793819;29;20053;-79
2021/12/16 09:44:41;;;;;;;36.45;10.48;;;;;;;;;;4808701;29;20343;-82
2021/12/16 09:47:10;;;;;;;80.95;12.55;;;;;;;;;;4808970;29;20110;-81
2021/12/16 09:49:36;;;;;;;46.97;10.27;;;;;;;;;;4789734;29;20057;-81
2021/12/16 09:52:04;;;;;;;74.93;11.70;;;;;;;;;;4790311;29;20130;-80
2021/12/16 09:54:31;;;;;;;112.20;13.38;;;;;;;;;;4790689;29;20051;-81
2021/12/16 09:56:58;;;;;;;105.68;12.73;;;;;;;;;;4790310;29;20054;-79
2021/12/16 09:59:25;;;;;;;79.40;11.80;;;;;;;;;;4790755;29;20058;-79
2021/12/16 10:01:53;;;;;;;75.03;13.25;;;;;;;;;;4793641;29;20137;-79
2021/12/16 10:04:21;;;;;;;52.58;11.00;;;;;;;;;;4793647;29;20369;-80
2021/12/16 10:06:48;;;;;;;109.97;13.32;;;;;;;;;;4793380;29;20081;-79
2021/12/16 10:09:15;;;;;;;33.22;10.40;;;;;;;;;;4793425;29;20050;-79
2021/12/16 10:11:43;;;;;;;59.80;11.50;;;;;;;;;;4792923;29;20114;-80
2021/12/16 10:19:24;;;;;;;86.10;13.48;;;;;;;;;;4805167;29;20061;-79
2021/12/16 10:21:51;;;;;;;45.38;9.52;;;;;;;;;;4792745;29;20046;-81
2021/12/16 10:24:35;;;;;;;27.55;9.60;;;;;;;;;;4810535;29;20046;-79
2021/12/16 10:27:09;;;;;;;32.15;9.85;;;;;;;;;;4796805;29;20062;-79
2021/12/16 10:29:56;;;;;;;59.58;11.48;;;;;;;;;;4811618;29;20154;-80
2021/12/16 10:32:21;;;;;;;;;;;;;;;;;;4812107;29;20077;-80
2021/12/16 10:35:02;;;;;;;32.80;10.63;;;;;;;;;;4798341;29;20342;-81
2021/12/16 10:37:32;;;;;;;38.17;12.05;;;;;;;;;;4812847;29;20050;-80
2021/12/16 10:40:17;;;;;;;51.25;11.55;;;;;;;;;;4775418;30;20039;-79
2021/12/16 10:42:44;;;;;;;35.08;10.60;;;;;;;;;;4791608;29;20065;-80
2021/12/16 10:45:25;;;;;;;27.08;10.50;;;;;;;;;;4807940;29;20053;-79
2021/12/16 10:48:09;;;;;;;29.42;11.35;;;;;;;;;;4808108;29;20047;-82
2021/12/16 10:50:57;;;;;;;29.05;11.15;;;;;;;;;;4777917;29;20233;-80
2021/12/16 10:53:42;;;;;;;44.30;12.48;;;;;;;;;;4807836;29;20088;-82
2021/12/16 10:56:09;;;;;;;43.17;10.95;;;;;;;;;;4793243;29;20043;-79
2021/12/16 10:58:48;;;;;;;22.55;9.77;;;;;;;;;;4807871;29;20055;-78
2021/12/16 11:01:34;;;;;;;32.97;11.25;;;;;;;;;;4810999;29;20082;-79
2021/12/16 11:04:01;;;;;;;16.20;9.95;;;;;;;;;;4795832;29;20043;-79
2021/12/16 11:06:29;;;;;;;27.38;11.98;;;;;;;;;;4796038;29;20042;-80
2021/12/16 11:08:55;;;;;;;27.02;11.35;;;;;;;;;;4810318;29;20392;-80
2021/12/16 11:11:30;;;;;;;28.92;11.00;;;;;;;;;;4795593;29;20173;-80
2021/12/16 11:14:07;;;;;;;25.98;10.93;;;;;;;;;;4796065;29;20057;-80
2021/12/16 11:16:34;;;;;;;22.35;10.73;;;;;;;;;;4794276;29;20043;-78
2021/12/16 11:19:00;;;;;;;19.92;9.82;;;;;;;;;;4810167;29;20046;-80
2021/12/16 11:21:39;;;;;;;17.67;9.95;;;;;;;;;;4791886;29;20482;-75
2021/12/16 11:24:22;;;;;;;22.83;10.18;;;;;;;;;;4823189;29;20058;-76
2021/12/16 11:26:48;;;;;;;16.75;10.35;;;;;;;;;;4809816;29;20483;-77
2021/12/16 11:29:14;;;;;;;18.25;10.95;;;;;;;;;;4826537;29;20062;-75
2021/12/16 11:31:40;;;;;;;21.50;12.25;;;;;;;;;;4811939;29;20121;-76
2021/12/16 11:34:10;;;;;;;23.00;14.57;;;;;;;;;;4822969;29;20050;-77
2021/12/16 11:36:38;;;;;;;27.25;13.68;;;;;;;;;;4820310;29;20044;-78
2021/12/16 11:39:09;;;;;;;22.05;12.10;;;;;;;;;;4825712;29;20066;-76
2021/12/16 11:41:41;;;;;;;20.33;11.90;;;;;;;;;;4810256;29;20058;-78
2021/12/16 11:44:07;;;;;;;22.80;11.95;;;;;;;;;;4810521;29;20153;-76
2021/12/16 11:46:45;;;;;;;25.25;11.70;;;;;;;;;;4794625;29;20114;-77
2021/12/16 11:49:23;;;;;;;19.77;10.98;;;;;;;;;;4810046;29;20459;-76
2021/12/16 11:51:56;;;;;;;17.70;11.52;;;;;;;;;;4794814;29;20042;-76
2021/12/16 11:54:24;;;;;;;19.80;11.85;;;;;;;;;;4809392;29;20054;-79
2021/12/16 11:57:05;;;;;;;22.73;12.15;;;;;;;;;;4791118;29;20054;-76
2021/12/16 11:59:39;;;;;;;19.00;11.38;;;;;;;;;;4807182;29;20051;-77
2021/12/16 12:02:06;;;;;;;18.67;11.73;;;;;;;;;;4813335;29;20058;-77
2021/12/16 12:04:37;;;;;;;21.83;12.15;;;;;;;;;;4809685;29;20058;-77
2021/12/16 12:07:11;;;;;;;22.00;12.50;;;;;;;;;;4795160;29;20050;-76
2021/12/16 12:09:39;;;;;;;21.55;12.27;;;;;;;;;;4824210;29;20066;-78
2021/12/16 12:12:06;;;;;;;22.70;13.07;;;;;;;;;;4825797;29;20058;-76
2021/12/16 12:14:36;;;;;;;22.25;12.77;;;;;;;;;;4826127;29;20058;-73
2021/12/16 12:17:05;;;;;;;22.13;12.35;;;;;;;;;;4808959;29;20046;-79
2021/12/16 12:19:31;;;;;;;21.35;12.45;;;;;;;;;;4794920;29;20058;-76
2021/12/16 12:22:00;;;;;;;21.65;12.68;;;;;;;;;;4825419;29;20065;-76
2021/12/16 12:24:31;;;;;;;25.42;12.60;;;;;;;;;;4825786;29;20073;-78
2021/12/16 12:27:00;;;;;;;24.48;12.70;;;;;;;;;;4806908;29;20137;-77
2021/12/16 12:29:31;;;;;;;17.30;11.85;;;;;;;;;;4822883;29;20054;-77
2021/12/16 12:32:03;;;;;;;21.40;12.13;;;;;;;;;;4825669;29;20054;-78
2021/12/16 12:34:29;;;;;;;24.25;14.95;;;;;;;;;;4809760;29;20089;-76
2021/12/16 12:36:58;;;;;;;23.60;15.07;;;;;;;;;;4808225;29;20054;-76
2021/12/16 12:39:25;;;;;;;23.33;14.80;;;;;;;;;;4793915;29;20054;-76
2021/12/16 12:41:53;;;;;;;22.33;12.73;;;;;;;;;;4809236;29;20072;-78
2021/12/16 12:44:19;;;;;;;19.40;12.85;;;;;;;;;;4809548;29;20466;-78
2021/12/16 12:46:45;;;;;;;25.42;15.95;;;;;;;;;;4824478;29;20099;-76
2021/12/16 12:49:14;;;;;;;25.73;15.77;;;;;;;;;;4809073;29;20362;-77
2021/12/16 12:51:43;;;;;;;22.73;14.38;;;;;;;;;;4809567;29;20054;-76
2021/12/16 12:54:26;;;;;;;21.83;14.00;;;;;;;;;;4809487;29;20047;-78
2021/12/16 12:56:54;;;;;;;23.05;13.88;;;;;;;;;;4825076;29;20149;-79
2021/12/16 12:59:20;;;;;;;25.92;14.88;;;;;;;;;;4825220;29;20061;-77
2021/12/16 13:01:52;;;;;;;28.70;14.30;;;;;;;;;;4825552;29;20050;-78
2021/12/16 13:04:24;;;;;;;26.42;13.75;;;;;;;;;;4809301;29;20050;-76
2021/12/16 13:06:50;;;;;;;29.13;12.70;;;;;;;;;;4808714;29;20516;-77
2021/12/16 13:09:28;;;;;;;32.80;12.82;;;;;;;;;;4802729;29;20081;-76
2021/12/16 13:11:55;;;;;;;28.40;12.70;;;;;;;;;;4808046;29;20050;-77
2021/12/16 13:14:29;;;;;;;26.92;12.35;;;;;;;;;;4825365;29;20114;-77
2021/12/16 13:28:03;;;;;;;27.70;13.07;;;;;;;;;;4808613;29;20062;-77
2021/12/16 13:30:32;;;;;;;27.25;12.90;;;;;;;;;;4809042;29;20054;-77
2021/12/16 13:33:17;;;;;;;31.23;14.18;;;;;;;;;;4790860;29;20394;-77
2021/12/16 13:35:49;;;;;;;41.65;14.98;;;;;;;;;;4808692;29;20091;-78
2021/12/16 13:38:17;;;;;;;38.33;15.38;;;;;;;;;;4823616;29;20050;-76
2021/12/16 13:40:44;;;;;;;43.10;18.30;;;;;;;;;;4824736;29;20054;-79
2021/12/16 13:43:18;;;;;;;52.03;17.17;;;;;;;;;;4793831;29;20054;-76
2021/12/16 13:45:54;;;;;;;51.67;17.20;;;;;;;;;;4808115;29;20058;-76
2021/12/16 13:49:01;;;;;;;46.95;16.95;;;;;;;;;;4824879;29;20047;-76
2021/12/16 14:05:39;;;;;;;37.38;16.10;;;;;;;;;;4811332;29;20058;-76
2021/12/16 14:08:11;;;;;;;37.65;16.25;;;;;;;;;;4811000;29;20085;-76
2021/12/16 14:10:56;;;;;;;35.28;16.58;;;;;;;;;;4794567;29;20119;-76
2021/12/16 14:16:24;;;;;;;39.80;17.58;;;;;;;;;;4793685;29;20063;-76
2021/12/16 14:41:35;;;;;;;28.10;11.45;;;;;;;;;;4809289;29;20069;-77
2021/12/16 14:47:12;;;;;;;26.08;11.93;;;;;;;;;;4771553;29;20073;-76
2021/12/16 14:49:41;;;;;;;35.42;11.88;;;;;;;;;;4791170;30;20059;-76
2021/12/16 14:52:20;;;;;;;23.95;10.93;;;;;;;;;;4790909;30;20078;-76
2021/12/16 14:54:49;;;;;;;24.88;11.38;;;;;;;;;;4791530;30;20461;-76
2021/12/16 14:57:20;;;;;;;23.10;10.77;;;;;;;;;;4792930;29;20083;-75
2021/12/16 14:59:46;;;;;;;24.55;10.45;;;;;;;;;;4808072;29;20046;-76
2021/12/16 15:02:14;;;;;;;21.73;10.75;;;;;;;;;;4783111;30;20059;-76
2021/12/16 15:04:40;;;;;;;18.38;9.50;;;;;;;;;;4775432;30;20473;-76
2021/12/16 15:07:10;;;;;;;35.28;10.82;;;;;;;;;;4786231;29;20449;-75
2021/12/16 15:09:38;;;;;;;38.60;12.25;;;;;;;;;;4819168;29;20070;-76
2021/12/16 15:12:12;;;;;;;33.85;11.35;;;;;;;;;;4795686;29;20073;-76
2021/12/16 15:40:09;;;;;;;23.60;9.43;;;;;;;;;;4806414;29;20050;-76
2021/12/16 15:42:52;;;;;;;24.83;9.45;;;;;;;;;;4823322;29;20046;-76
2021/12/16 15:45:27;;;;;;;19.67;8.75;;;;;;;;;;4809950;29;20179;-81
2021/12/16 15:47:53;;;;;;;21.13;9.17;;;;;;;;;;4792371;29;20085;-75
2021/12/16 15:50:22;;;;;;;34.15;10.30;;;;;;;;;;4808358;29;20379;-75
2021/12/16 15:52:49;;;;;;;28.27;9.35;;;;;;;;;;4808789;29;20129;-76
2021/12/16 15:55:34;;;;;;;29.35;9.02;;;;;;;;;;4825956;29;20068;-75
2021/12/16 15:58:01;;;;;;;44.05;10.82;;;;;;;;;;4826005;29;20477;-75
2021/12/16 16:00:27;;;;;;;53.10;10.55;;;;;;;;;;4805883;29;20133;-75
2021/12/16 16:02:55;;;;;;;68.75;12.05;;;;;;;;;;4794415;29;20065;-75
2021/12/16 16:05:22;;;;;;;44.47;10.88;;;;;;;;;;4805310;29;20062;-78
2021/12/16 16:07:48;;;;;;;31.58;10.32;;;;;;;;;;4810142;29;20046;-76
2021/12/16 16:10:15;;;;;;;71.63;11.02;;;;;;;;;;4808779;29;20058;-76
2021/12/16 16:12:42;;;;;;;75.85;11.73;;;;;;;;;;4809829;29;20053;-77
2021/12/16 16:15:26;;;;;;;36.20;10.57;;;;;;;;;;4809452;29;20060;-76
2021/12/16 16:18:11;;;;;;;43.22;11.13;;;;;;;;;;4809053;29;20065;-78
2021/12/16 16:20:38;;;;;;;42.95;10.88;;;;;;;;;;4809843;29;20050;-75
2021/12/16 16:23:08;;;;;;;33.58;10.25;;;;;;;;;;4809632;29;20054;-85
2021/12/16 16:25:35;;;;;;;44.40;10.40;;;;;;;;;;4825688;29;20107;-77
2021/12/16 16:28:02;;;;;;;100.75;11.93;;;;;;;;;;4787385;29;20047;-76
2021/12/16 16:30:29;;;;;;;38.35;10.35;;;;;;;;;;4816142;29;20046;-76
2021/12/16 16:33:15;;;;;;;118.10;12.15;;;;;;;;;;4800933;29;20504;-76
2021/12/16 16:35:46;;;;;;;86.53;11.88;;;;;;;;;;4826022;29;20109;-76
2021/12/16 16:38:18;;;;;;;51.53;11.00;;;;;;;;;;4820216;29;20399;-78
2021/12/16 16:40:55;;;;;;;51.17;11.32;;;;;;;;;;4809323;29;20076;-88
2021/12/16 16:43:35;;;;;;;74.93;12.65;;;;;;;;;;4807646;29;20074;-79
2021/12/16 16:46:04;;;;;;;80.03;14.48;;;;;;;;;;4809061;29;20046;-79
2021/12/16 16:48:45;;;;;;;45.47;12.05;;;;;;;;;;4806983;29;20054;-79
2021/12/16 16:51:17;;;;;;;55.28;12.82;;;;;;;;;;4793996;29;20099;-78
2021/12/16 16:53:45;;;;;;;95.38;13.57;;;;;;;;;;4808638;29;20512;-77
2021/12/16 16:56:11;;;;;;;62.40;13.38;;;;;;;;;;4800773;29;20050;-77
2021/12/16 16:58:37;;;;;;;44.85;10.90;;;;;;;;;;4798583;29;20049;-77
2021/12/16 17:01:04;;;;;;;83.55;12.93;;;;;;;;;;4823153;29;20449;-77
2021/12/16 17:03:31;;;;;;;76.03;13.00;;;;;;;;;;4805017;29;20046;-76
2021/12/16 17:05:59;;;;;;;105.03;13.93;;;;;;;;;;4824092;29;20055;-79
2021/12/16 17:08:32;;;;;;;117.80;13.45;;;;;;;;;;4805675;29;20061;-77
2021/12/16 17:11:04;;;;;;;97.85;13.98;;;;;;;;;;4807430;29;20475;-76
2021/12/16 17:18:50;;;;;;;91.20;13.50;;;;;;;;;;4806631;29;20063;-77
2021/12/16 17:21:18;;;;;;;144.00;15.95;;;;;;;;;;4791505;29;20059;-77
2021/12/16 17:23:49;;;;;;;94.32;13.68;;;;;;;;;;4802975;29;20423;-78
2021/12/16 17:26:21;;;;;;;119.72;14.65;;;;;;;;;;4823424;29;20443;-75
2021/12/16 17:28:51;;;;;;;35.25;10.30;;;;;;;;;;4807835;29;20046;-78
2021/12/16 17:31:29;;;;;;;56.63;11.25;;;;;;;;;;4805477;29;20075;-76
2021/12/16 17:34:13;;;;;;;83.35;13.02;;;;;;;;;;4803815;29;20061;-77
2021/12/16 17:36:44;;;;;;;79.97;11.88;;;;;;;;;;4802262;29;20487;-78
2021/12/16 17:39:12;;;;;;;72.80;11.90;;;;;;;;;;4810175;29;20058;-77
2021/12/16 17:41:39;;;;;;;74.32;13.02;;;;;;;;;;4811717;29;20050;-77
2021/12/16 17:44:10;;;;;;;45.25;11.82;;;;;;;;;;4803787;29;20069;-77
2021/12/16 17:46:37;;;;;;;74.78;13.77;;;;;;;;;;4817778;29;20042;-78
2021/12/16 17:49:05;;;;;;;79.22;16.13;;;;;;;;;;4820292;29;20058;-78
2021/12/16 17:51:32;;;;;;;72.50;15.07;;;;;;;;;;4804344;29;20498;-77
2021/12/16 17:54:01;;;;;;;80.22;15.80;;;;;;;;;;4818003;29;20057;-78
2021/12/16 17:56:27;;;;;;;86.57;17.27;;;;;;;;;;4810881;29;20061;-77
2021/12/16 17:58:55;;;;;;;62.60;12.95;;;;;;;;;;4827657;29;20142;-78
2021/12/16 18:01:26;;;;;;;47.90;14.05;;;;;;;;;;4825008;29;20045;-77
2021/12/16 18:04:01;;;;;;;41.08;12.35;;;;;;;;;;4807793;29;20353;-77
2021/12/16 18:06:54;;;;;;;60.35;13.35;;;;;;;;;;4818956;29;20468;-76
2021/12/16 18:09:31;;;;;;;75.68;13.45;;;;;;;;;;4817711;29;20062;-78
2021/12/16 18:12:02;;;;;;;64.18;13.07;;;;;;;;;;4804294;29;20071;-77
2021/12/16 18:14:30;;;;;;;49.53;13.05;;;;;;;;;;4808625;29;20050;-76
2021/12/16 18:17:01;;;;;;;37.40;12.10;;;;;;;;;;4811919;29;20046;-78
2021/12/16 18:19:40;;;;;;;59.92;13.15;;;;;;;;;;4811112;29;20077;-77
2021/12/16 18:22:08;;;;;;;45.78;13.48;;;;;;;;;;4822281;29;20414;-78
2021/12/16 18:24:43;;;;;;;74.57;14.77;;;;;;;;;;4802291;29;20042;-79
2021/12/16 18:27:16;;;;;;;61.67;15.30;;;;;;;;;;4810180;29;20038;-78
2021/12/16 18:29:45;;;;;;;87.15;14.32;;;;;;;;;;4826454;29;20060;-78
2021/12/16 18:32:12;;;;;;;58.22;13.93;;;;;;;;;;4791000;29;20047;-77
2021/12/16 18:34:38;;;;;;;86.07;15.27;;;;;;;;;;4825988;29;20046;-77
2021/12/16 18:37:09;;;;;;;74.90;13.48;;;;;;;;;;4825992;29;20050;-77
2021/12/16 18:39:44;;;;;;;53.17;12.30;;;;;;;;;;4794204;29;20401;-77
2021/12/16 18:42:11;;;;;;;43.50;12.65;;;;;;;;;;4808717;29;20328;-77
2021/12/16 18:44:43;;;;;;;71.70;13.60;;;;;;;;;;4778181;29;20043;-79
2021/12/16 18:47:45;;;;;;;88.57;13.27;;;;;;;;;;4796518;29;20114;-77